sensor_id;sensor_type;location;lat;lon;timestamp;P1;durP1;ratioP1;P2;durP2;ratioP2
5199;SDS011;2619;47.868;11.892;2023-07-20T00:00:45;11.67;;;7.77;;
5199;SDS011;2619;47.868;11.892;2023-07-20T00:03:11;10.40;;;7.77;;
5199;SDS011;2619;47.868;11.892;2023-07-20T00:05:42;11.33;;;7.77;;
5199;SDS011;2619;47.868;11.892;2023-07-20T00:08:08;10.00;;;8.53;;
5199;SDS011;2619;47.868;11.892;2023-07-20T00:10:33;13.00;;;7.90;;
5199;SDS011;2619;47.868;11.892;2023-07-20T00:12:59;14.10;;;8.23;;
5199;SDS011;2619;47.868;11.892;2023-07-20T00:15:25;9.50;;;8.30;;
5199;SDS011;2619;47.868;11.892;2023-07-20T00:17:50;12.43;;;7.80;;
5199;SDS011;2619;47.868;11.892;2023-07-20T00:28:04;13.10;;;8.90;;
5199;SDS011;2619;47.868;11.892;2023-07-20T00:30:29;12.50;;;9.20;;
5199;SDS011;2619;47.868;11.892;2023-07-20T00:32:55;11.60;;;8.60;;
5199;SDS011;2619;47.868;11.892;2023-07-20T00:35:20;12.53;;;8.37;;
5199;SDS011;2619;47.868;11.892;2023-07-20T00:37:46;10.77;;;8.20;;
5199;SDS011;2619;47.868;11.892;2023-07-20T00:40:11;12.07;;;7.50;;
5199;SDS011;2619;47.868;11.892;2023-07-20T00:42:37;11.13;;;7.23;;
5199;SDS011;2619;47.868;11.892;2023-07-20T00:45:03;13.07;;;7.40;;
5199;SDS011;2619;47.868;11.892;2023-07-20T00:47:29;9.33;;;6.83;;
5199;SDS011;2619;47.868;11.892;2023-07-20T00:49:55;11.90;;;6.97;;
5199;SDS011;2619;47.868;11.892;2023-07-20T00:52:21;9.40;;;7.23;;
5199;SDS011;2619;47.868;11.892;2023-07-20T00:54:48;10.70;;;6.50;;
5199;SDS011;2619;47.868;11.892;2023-07-20T00:57:15;9.10;;;7.37;;
5199;SDS011;2619;47.868;11.892;2023-07-20T00:59:41;9.40;;;6.53;;
5199;SDS011;2619;47.868;11.892;2023-07-20T01:02:07;10.80;;;7.07;;
5199;SDS011;2619;47.868;11.892;2023-07-20T01:04:33;15.03;;;7.67;;
5199;SDS011;2619;47.868;11.892;2023-07-20T01:07:22;11.80;;;7.40;;
5199;SDS011;2619;47.868;11.892;2023-07-20T01:12:56;10.00;;;6.80;;
5199;SDS011;2619;47.868;11.892;2023-07-20T01:15:24;10.30;;;7.57;;
5199;SDS011;2619;47.868;11.892;2023-07-20T01:17:49;11.20;;;6.43;;
5199;SDS011;2619;47.868;11.892;2023-07-20T01:20:15;9.00;;;7.20;;
5199;SDS011;2619;47.868;11.892;2023-07-20T01:31:38;10.20;;;6.70;;
5199;SDS011;2619;47.868;11.892;2023-07-20T01:34:06;8.10;;;6.03;;
5199;SDS011;2619;47.868;11.892;2023-07-20T01:36:34;10.80;;;7.10;;
5199;SDS011;2619;47.868;11.892;2023-07-20T01:39:02;8.13;;;5.60;;
5199;SDS011;2619;47.868;11.892;2023-07-20T01:41:29;8.60;;;6.00;;
5199;SDS011;2619;47.868;11.892;2023-07-20T01:43:58;7.40;;;5.40;;
5199;SDS011;2619;47.868;11.892;2023-07-20T01:46:27;7.03;;;5.50;;
5199;SDS011;2619;47.868;11.892;2023-07-20T01:48:53;8.17;;;5.77;;
5199;SDS011;2619;47.868;11.892;2023-07-20T01:51:19;9.83;;;6.37;;
5199;SDS011;2619;47.868;11.892;2023-07-20T01:53:44;12.23;;;6.30;;
5199;SDS011;2619;47.868;11.892;2023-07-20T01:56:10;8.50;;;5.80;;
5199;SDS011;2619;47.868;11.892;2023-07-20T01:58:37;7.23;;;5.70;;
5199;SDS011;2619;47.868;11.892;2023-07-20T02:01:02;8.13;;;6.03;;
5199;SDS011;2619;47.868;11.892;2023-07-20T02:03:28;9.27;;;6.10;;
5199;SDS011;2619;47.868;11.892;2023-07-20T02:05:54;8.23;;;5.40;;
5199;SDS011;2619;47.868;11.892;2023-07-20T02:08:19;8.63;;;5.43;;
5199;SDS011;2619;47.868;11.892;2023-07-20T02:10:48;8.63;;;5.87;;
5199;SDS011;2619;47.868;11.892;2023-07-20T02:13:14;9.53;;;6.03;;
5199;SDS011;2619;47.868;11.892;2023-07-20T02:15:41;10.77;;;6.67;;
5199;SDS011;2619;47.868;11.892;2023-07-20T02:18:07;9.23;;;5.60;;
5199;SDS011;2619;47.868;11.892;2023-07-20T02:20:33;8.47;;;6.03;;
5199;SDS011;2619;47.868;11.892;2023-07-20T02:22:59;9.60;;;5.73;;
5199;SDS011;2619;47.868;11.892;2023-07-20T02:25:24;8.73;;;5.90;;
5199;SDS011;2619;47.868;11.892;2023-07-20T02:27:50;8.30;;;5.73;;
5199;SDS011;2619;47.868;11.892;2023-07-20T02:30:16;11.63;;;5.47;;
5199;SDS011;2619;47.868;11.892;2023-07-20T02:32:42;10.80;;;6.17;;
5199;SDS011;2619;47.868;11.892;2023-07-20T02:35:10;8.53;;;6.40;;
5199;SDS011;2619;47.868;11.892;2023-07-20T02:37:36;11.40;;;6.43;;
5199;SDS011;2619;47.868;11.892;2023-07-20T02:40:02;8.30;;;6.10;;
5199;SDS011;2619;47.868;11.892;2023-07-20T02:42:29;7.50;;;5.77;;
5199;SDS011;2619;47.868;11.892;2023-07-20T02:44:55;11.93;;;6.47;;
5199;SDS011;2619;47.868;11.892;2023-07-20T02:47:20;11.30;;;6.40;;
5199;SDS011;2619;47.868;11.892;2023-07-20T02:49:46;9.67;;;6.10;;
5199;SDS011;2619;47.868;11.892;2023-07-20T02:52:11;7.87;;;5.70;;
5199;SDS011;2619;47.868;11.892;2023-07-20T02:54:37;7.37;;;5.60;;
5199;SDS011;2619;47.868;11.892;2023-07-20T02:57:03;11.37;;;5.83;;
5199;SDS011;2619;47.868;11.892;2023-07-20T02:59:29;13.37;;;6.53;;
5199;SDS011;2619;47.868;11.892;2023-07-20T03:01:54;12.63;;;6.03;;
5199;SDS011;2619;47.868;11.892;2023-07-20T03:04:20;9.13;;;6.40;;
5199;SDS011;2619;47.868;11.892;2023-07-20T03:06:46;10.27;;;5.97;;
5199;SDS011;2619;47.868;11.892;2023-07-20T03:09:12;12.20;;;7.27;;
5199;SDS011;2619;47.868;11.892;2023-07-20T03:11:37;8.10;;;6.80;;
5199;SDS011;2619;47.868;11.892;2023-07-20T03:14:03;10.63;;;6.67;;
5199;SDS011;2619;47.868;11.892;2023-07-20T03:16:29;9.23;;;6.90;;
5199;SDS011;2619;47.868;11.892;2023-07-20T03:18:57;8.33;;;6.60;;
5199;SDS011;2619;47.868;11.892;2023-07-20T03:21:24;10.13;;;7.37;;
5199;SDS011;2619;47.868;11.892;2023-07-20T03:23:50;10.80;;;7.30;;
5199;SDS011;2619;47.868;11.892;2023-07-20T03:26:15;12.30;;;7.10;;
5199;SDS011;2619;47.868;11.892;2023-07-20T03:28:41;10.40;;;6.73;;
5199;SDS011;2619;47.868;11.892;2023-07-20T03:31:06;9.33;;;7.10;;
5199;SDS011;2619;47.868;11.892;2023-07-20T03:33:32;8.37;;;6.80;;
5199;SDS011;2619;47.868;11.892;2023-07-20T03:35:58;10.13;;;7.13;;
5199;SDS011;2619;47.868;11.892;2023-07-20T03:38:25;8.77;;;6.40;;
5199;SDS011;2619;47.868;11.892;2023-07-20T03:40:53;14.63;;;7.27;;
5199;SDS011;2619;47.868;11.892;2023-07-20T03:43:24;8.40;;;6.87;;
5199;SDS011;2619;47.868;11.892;2023-07-20T03:45:52;8.93;;;6.33;;
5199;SDS011;2619;47.868;11.892;2023-07-20T03:48:19;11.70;;;6.83;;
5199;SDS011;2619;47.868;11.892;2023-07-20T03:50:49;10.87;;;6.53;;
5199;SDS011;2619;47.868;11.892;2023-07-20T03:53:16;11.00;;;6.77;;
5199;SDS011;2619;47.868;11.892;2023-07-20T03:55:45;8.33;;;6.27;;
5199;SDS011;2619;47.868;11.892;2023-07-20T03:58:12;10.67;;;6.40;;
5199;SDS011;2619;47.868;11.892;2023-07-20T04:00:38;8.43;;;6.67;;
5199;SDS011;2619;47.868;11.892;2023-07-20T04:03:05;10.50;;;6.60;;
5199;SDS011;2619;47.868;11.892;2023-07-20T04:05:30;8.23;;;5.80;;
5199;SDS011;2619;47.868;11.892;2023-07-20T04:07:56;9.80;;;6.27;;
5199;SDS011;2619;47.868;11.892;2023-07-20T04:10:21;8.77;;;6.20;;
5199;SDS011;2619;47.868;11.892;2023-07-20T04:12:47;15.00;;;7.50;;
5199;SDS011;2619;47.868;11.892;2023-07-20T04:15:13;11.07;;;6.23;;
5199;SDS011;2619;47.868;11.892;2023-07-20T04:17:39;9.70;;;7.43;;
5199;SDS011;2619;47.868;11.892;2023-07-20T04:20:08;9.93;;;7.70;;
5199;SDS011;2619;47.868;11.892;2023-07-20T04:22:34;9.20;;;7.07;;
5199;SDS011;2619;47.868;11.892;2023-07-20T04:25:00;11.73;;;7.67;;
5199;SDS011;2619;47.868;11.892;2023-07-20T04:27:25;11.80;;;6.47;;
5199;SDS011;2619;47.868;11.892;2023-07-20T04:29:51;10.77;;;6.40;;
5199;SDS011;2619;47.868;11.892;2023-07-20T04:32:17;8.60;;;5.80;;
5199;SDS011;2619;47.868;11.892;2023-07-20T04:34:43;11.33;;;6.07;;
5199;SDS011;2619;47.868;11.892;2023-07-20T04:37:08;9.20;;;5.83;;
5199;SDS011;2619;47.868;11.892;2023-07-20T04:39:34;9.80;;;5.77;;
5199;SDS011;2619;47.868;11.892;2023-07-20T04:41:59;9.83;;;5.13;;
5199;SDS011;2619;47.868;11.892;2023-07-20T04:44:25;9.83;;;5.67;;
5199;SDS011;2619;47.868;11.892;2023-07-20T04:46:51;12.47;;;4.90;;
5199;SDS011;2619;47.868;11.892;2023-07-20T04:49:16;11.63;;;5.50;;
5199;SDS011;2619;47.868;11.892;2023-07-20T04:51:42;8.33;;;4.70;;
5199;SDS011;2619;47.868;11.892;2023-07-20T04:54:07;8.00;;;4.87;;
5199;SDS011;2619;47.868;11.892;2023-07-20T04:56:33;5.80;;;4.00;;
5199;SDS011;2619;47.868;11.892;2023-07-20T04:58:59;9.40;;;5.17;;
5199;SDS011;2619;47.868;11.892;2023-07-20T05:01:24;8.80;;;4.37;;
5199;SDS011;2619;47.868;11.892;2023-07-20T05:03:51;9.13;;;4.90;;
5199;SDS011;2619;47.868;11.892;2023-07-20T05:06:17;7.33;;;4.50;;
5199;SDS011;2619;47.868;11.892;2023-07-20T05:08:43;9.43;;;4.20;;
5199;SDS011;2619;47.868;11.892;2023-07-20T05:11:09;7.60;;;4.07;;
5199;SDS011;2619;47.868;11.892;2023-07-20T05:13:36;5.57;;;3.73;;
5199;SDS011;2619;47.868;11.892;2023-07-20T05:16:01;7.43;;;4.27;;
5199;SDS011;2619;47.868;11.892;2023-07-20T05:18:27;8.33;;;4.27;;
5199;SDS011;2619;47.868;11.892;2023-07-20T05:20:53;7.40;;;4.07;;
5199;SDS011;2619;47.868;11.892;2023-07-20T05:23:20;8.10;;;4.17;;
5199;SDS011;2619;47.868;11.892;2023-07-20T05:25:46;9.00;;;3.93;;
5199;SDS011;2619;47.868;11.892;2023-07-20T05:28:18;8.37;;;4.50;;
5199;SDS011;2619;47.868;11.892;2023-07-20T05:30:44;10.57;;;4.20;;
5199;SDS011;2619;47.868;11.892;2023-07-20T05:33:09;6.10;;;4.10;;
5199;SDS011;2619;47.868;11.892;2023-07-20T05:35:36;7.00;;;4.33;;
5199;SDS011;2619;47.868;11.892;2023-07-20T05:38:01;7.40;;;4.23;;
5199;SDS011;2619;47.868;11.892;2023-07-20T05:40:29;7.17;;;3.93;;
5199;SDS011;2619;47.868;11.892;2023-07-20T05:42:54;10.80;;;3.87;;
5199;SDS011;2619;47.868;11.892;2023-07-20T05:45:21;8.53;;;4.50;;
5199;SDS011;2619;47.868;11.892;2023-07-20T05:47:47;5.83;;;3.73;;
5199;SDS011;2619;47.868;11.892;2023-07-20T05:50:13;7.77;;;4.17;;
5199;SDS011;2619;47.868;11.892;2023-07-20T05:52:39;6.60;;;4.37;;
5199;SDS011;2619;47.868;11.892;2023-07-20T05:55:05;5.83;;;3.90;;
5199;SDS011;2619;47.868;11.892;2023-07-20T05:57:32;7.10;;;4.50;;
5199;SDS011;2619;47.868;11.892;2023-07-20T05:59:58;7.27;;;4.20;;
5199;SDS011;2619;47.868;11.892;2023-07-20T06:02:23;6.00;;;3.73;;
5199;SDS011;2619;47.868;11.892;2023-07-20T06:04:49;9.33;;;4.07;;
5199;SDS011;2619;47.868;11.892;2023-07-20T06:07:14;6.77;;;4.13;;
5199;SDS011;2619;47.868;11.892;2023-07-20T06:09:40;10.63;;;4.20;;
5199;SDS011;2619;47.868;11.892;2023-07-20T06:12:06;5.63;;;3.90;;
5199;SDS011;2619;47.868;11.892;2023-07-20T06:14:32;8.17;;;3.83;;
5199;SDS011;2619;47.868;11.892;2023-07-20T06:16:58;5.80;;;3.93;;
5199;SDS011;2619;47.868;11.892;2023-07-20T06:19:24;5.10;;;3.67;;
5199;SDS011;2619;47.868;11.892;2023-07-20T06:21:50;6.97;;;4.40;;
5199;SDS011;2619;47.868;11.892;2023-07-20T06:24:16;7.57;;;3.97;;
5199;SDS011;2619;47.868;11.892;2023-07-20T06:26:42;6.73;;;4.43;;
5199;SDS011;2619;47.868;11.892;2023-07-20T06:29:07;7.60;;;4.73;;
5199;SDS011;2619;47.868;11.892;2023-07-20T06:31:36;8.13;;;4.70;;
5199;SDS011;2619;47.868;11.892;2023-07-20T06:34:02;11.70;;;4.10;;
5199;SDS011;2619;47.868;11.892;2023-07-20T06:36:27;8.23;;;4.20;;
5199;SDS011;2619;47.868;11.892;2023-07-20T06:38:53;5.80;;;3.90;;
5199;SDS011;2619;47.868;11.892;2023-07-20T06:41:19;6.90;;;3.77;;
5199;SDS011;2619;47.868;11.892;2023-07-20T06:43:45;8.10;;;3.60;;
5199;SDS011;2619;47.868;11.892;2023-07-20T06:46:11;5.87;;;3.63;;
5199;SDS011;2619;47.868;11.892;2023-07-20T06:48:36;6.83;;;3.30;;
5199;SDS011;2619;47.868;11.892;2023-07-20T06:51:02;8.20;;;3.57;;
5199;SDS011;2619;47.868;11.892;2023-07-20T06:53:28;9.53;;;3.20;;
5199;SDS011;2619;47.868;11.892;2023-07-20T06:55:54;6.37;;;3.27;;
5199;SDS011;2619;47.868;11.892;2023-07-20T06:58:22;4.80;;;3.27;;
5199;SDS011;2619;47.868;11.892;2023-07-20T07:00:50;9.50;;;3.67;;
5199;SDS011;2619;47.868;11.892;2023-07-20T07:03:16;6.50;;;3.50;;
5199;SDS011;2619;47.868;11.892;2023-07-20T07:05:42;7.47;;;3.07;;
5199;SDS011;2619;47.868;11.892;2023-07-20T07:08:08;7.20;;;3.30;;
5199;SDS011;2619;47.868;11.892;2023-07-20T07:10:35;7.67;;;2.90;;
5199;SDS011;2619;47.868;11.892;2023-07-20T07:13:01;5.70;;;3.27;;
5199;SDS011;2619;47.868;11.892;2023-07-20T07:15:27;6.10;;;3.33;;
5199;SDS011;2619;47.868;11.892;2023-07-20T07:17:52;5.03;;;3.00;;
5199;SDS011;2619;47.868;11.892;2023-07-20T07:20:18;7.60;;;3.30;;
5199;SDS011;2619;47.868;11.892;2023-07-20T07:22:44;6.07;;;2.80;;
5199;SDS011;2619;47.868;11.892;2023-07-20T07:25:10;5.83;;;2.60;;
5199;SDS011;2619;47.868;11.892;2023-07-20T07:27:36;7.63;;;2.93;;
5199;SDS011;2619;47.868;11.892;2023-07-20T07:30:02;5.60;;;2.73;;
5199;SDS011;2619;47.868;11.892;2023-07-20T07:32:28;6.57;;;3.37;;
5199;SDS011;2619;47.868;11.892;2023-07-20T07:34:54;7.50;;;2.97;;
5199;SDS011;2619;47.868;11.892;2023-07-20T07:37:20;6.03;;;2.87;;
5199;SDS011;2619;47.868;11.892;2023-07-20T07:39:46;5.83;;;2.97;;
5199;SDS011;2619;47.868;11.892;2023-07-20T07:42:11;5.07;;;3.00;;
5199;SDS011;2619;47.868;11.892;2023-07-20T07:44:38;5.67;;;2.73;;
5199;SDS011;2619;47.868;11.892;2023-07-20T07:47:03;6.90;;;2.97;;
5199;SDS011;2619;47.868;11.892;2023-07-20T07:49:29;4.30;;;2.83;;
5199;SDS011;2619;47.868;11.892;2023-07-20T07:51:56;7.20;;;5.30;;
5199;SDS011;2619;47.868;11.892;2023-07-20T07:54:21;8.40;;;3.03;;
5199;SDS011;2619;47.868;11.892;2023-07-20T07:56:47;5.50;;;3.47;;
5199;SDS011;2619;47.868;11.892;2023-07-20T07:59:13;7.17;;;3.07;;
5199;SDS011;2619;47.868;11.892;2023-07-20T08:01:38;4.40;;;2.90;;
5199;SDS011;2619;47.868;11.892;2023-07-20T08:04:04;4.43;;;2.50;;
5199;SDS011;2619;47.868;11.892;2023-07-20T08:06:29;5.33;;;2.20;;
5199;SDS011;2619;47.868;11.892;2023-07-20T08:08:56;5.37;;;2.67;;
5199;SDS011;2619;47.868;11.892;2023-07-20T08:11:22;4.63;;;2.53;;
5199;SDS011;2619;47.868;11.892;2023-07-20T08:13:48;3.77;;;2.30;;
5199;SDS011;2619;47.868;11.892;2023-07-20T08:16:14;5.37;;;2.60;;
5199;SDS011;2619;47.868;11.892;2023-07-20T08:18:39;5.10;;;2.50;;
5199;SDS011;2619;47.868;11.892;2023-07-20T08:21:05;4.70;;;2.33;;
5199;SDS011;2619;47.868;11.892;2023-07-20T08:23:30;8.20;;;2.87;;
5199;SDS011;2619;47.868;11.892;2023-07-20T08:25:56;5.53;;;2.50;;
5199;SDS011;2619;47.868;11.892;2023-07-20T08:28:21;6.87;;;2.30;;
5199;SDS011;2619;47.868;11.892;2023-07-20T08:30:47;4.30;;;2.40;;
5199;SDS011;2619;47.868;11.892;2023-07-20T08:33:14;8.67;;;3.00;;
5199;SDS011;2619;47.868;11.892;2023-07-20T08:35:44;6.53;;;2.40;;
5199;SDS011;2619;47.868;11.892;2023-07-20T08:38:10;5.93;;;3.03;;
5199;SDS011;2619;47.868;11.892;2023-07-20T08:40:39;5.40;;;2.50;;
5199;SDS011;2619;47.868;11.892;2023-07-20T08:43:06;4.90;;;2.40;;
5199;SDS011;2619;47.868;11.892;2023-07-20T08:45:34;4.33;;;2.13;;
5199;SDS011;2619;47.868;11.892;2023-07-20T08:48:03;5.40;;;2.40;;
5199;SDS011;2619;47.868;11.892;2023-07-20T08:50:31;5.93;;;3.03;;
5199;SDS011;2619;47.868;11.892;2023-07-20T08:52:57;4.33;;;2.30;;
5199;SDS011;2619;47.868;11.892;2023-07-20T08:55:25;5.43;;;2.90;;
5199;SDS011;2619;47.868;11.892;2023-07-20T08:57:52;4.90;;;2.40;;
5199;SDS011;2619;47.868;11.892;2023-07-20T09:00:19;5.20;;;2.83;;
5199;SDS011;2619;47.868;11.892;2023-07-20T09:02:46;7.17;;;2.60;;
5199;SDS011;2619;47.868;11.892;2023-07-20T09:05:20;4.57;;;2.63;;
5199;SDS011;2619;47.868;11.892;2023-07-20T09:07:47;8.93;;;2.77;;
5199;SDS011;2619;47.868;11.892;2023-07-20T09:10:13;4.00;;;2.40;;
5199;SDS011;2619;47.868;11.892;2023-07-20T09:12:39;5.07;;;2.27;;
5199;SDS011;2619;47.868;11.892;2023-07-20T09:15:07;3.47;;;2.23;;
5199;SDS011;2619;47.868;11.892;2023-07-20T09:17:33;4.40;;;2.60;;
5199;SDS011;2619;47.868;11.892;2023-07-20T09:20:06;4.30;;;2.43;;
5199;SDS011;2619;47.868;11.892;2023-07-20T09:22:36;4.33;;;2.50;;
5199;SDS011;2619;47.868;11.892;2023-07-20T09:27:41;6.00;;;2.70;;
5199;SDS011;2619;47.868;11.892;2023-07-20T09:30:09;4.60;;;2.50;;
5199;SDS011;2619;47.868;11.892;2023-07-20T09:32:38;5.33;;;2.60;;
5199;SDS011;2619;47.868;11.892;2023-07-20T09:35:18;4.47;;;2.60;;
5199;SDS011;2619;47.868;11.892;2023-07-20T09:37:54;5.00;;;2.60;;
5199;SDS011;2619;47.868;11.892;2023-07-20T09:40:24;6.07;;;3.00;;
5199;SDS011;2619;47.868;11.892;2023-07-20T09:42:50;4.93;;;2.33;;
5199;SDS011;2619;47.868;11.892;2023-07-20T09:45:18;4.10;;;2.50;;
5199;SDS011;2619;47.868;11.892;2023-07-20T09:47:44;4.47;;;2.60;;
5199;SDS011;2619;47.868;11.892;2023-07-20T09:50:09;6.90;;;2.40;;
5199;SDS011;2619;47.868;11.892;2023-07-20T09:52:40;5.30;;;2.70;;
5199;SDS011;2619;47.868;11.892;2023-07-20T09:55:07;4.33;;;2.37;;
5199;SDS011;2619;47.868;11.892;2023-07-20T09:57:34;6.73;;;3.07;;
5199;SDS011;2619;47.868;11.892;2023-07-20T10:00:01;4.10;;;2.37;;
5199;SDS011;2619;47.868;11.892;2023-07-20T10:02:41;5.30;;;2.80;;
5199;SDS011;2619;47.868;11.892;2023-07-20T10:05:08;5.30;;;2.67;;
5199;SDS011;2619;47.868;11.892;2023-07-20T10:07:43;4.60;;;2.47;;
5199;SDS011;2619;47.868;11.892;2023-07-20T10:10:11;4.83;;;2.60;;
5199;SDS011;2619;47.868;11.892;2023-07-20T10:12:39;4.50;;;2.30;;
5199;SDS011;2619;47.868;11.892;2023-07-20T10:17:59;4.00;;;2.40;;
5199;SDS011;2619;47.868;11.892;2023-07-20T10:20:46;4.07;;;1.90;;
5199;SDS011;2619;47.868;11.892;2023-07-20T10:23:14;4.20;;;2.70;;
5199;SDS011;2619;47.868;11.892;2023-07-20T10:25:40;6.60;;;2.20;;
5199;SDS011;2619;47.868;11.892;2023-07-20T10:28:07;6.30;;;2.70;;
5199;SDS011;2619;47.868;11.892;2023-07-20T10:30:34;5.57;;;2.50;;
5199;SDS011;2619;47.868;11.892;2023-07-20T10:33:03;4.40;;;2.53;;
5199;SDS011;2619;47.868;11.892;2023-07-20T10:35:30;4.90;;;2.53;;
5199;SDS011;2619;47.868;11.892;2023-07-20T10:38:15;6.20;;;3.00;;
5199;SDS011;2619;47.868;11.892;2023-07-20T10:40:40;4.80;;;2.80;;
5199;SDS011;2619;47.868;11.892;2023-07-20T10:43:06;3.53;;;2.33;;
5199;SDS011;2619;47.868;11.892;2023-07-20T10:45:39;5.00;;;3.03;;
5199;SDS011;2619;47.868;11.892;2023-07-20T10:48:16;6.57;;;2.90;;
5199;SDS011;2619;47.868;11.892;2023-07-20T10:50:44;5.80;;;2.10;;
5199;SDS011;2619;47.868;11.892;2023-07-20T10:53:11;4.40;;;2.63;;
5199;SDS011;2619;47.868;11.892;2023-07-20T10:55:37;4.93;;;2.60;;
5199;SDS011;2619;47.868;11.892;2023-07-20T10:58:21;4.97;;;2.87;;
5199;SDS011;2619;47.868;11.892;2023-07-20T11:00:54;5.73;;;2.80;;
5199;SDS011;2619;47.868;11.892;2023-07-20T11:03:30;4.77;;;3.10;;
5199;SDS011;2619;47.868;11.892;2023-07-20T11:06:00;5.87;;;3.03;;
5199;SDS011;2619;47.868;11.892;2023-07-20T11:08:48;5.47;;;3.00;;
5199;SDS011;2619;47.868;11.892;2023-07-20T11:11:23;4.57;;;2.50;;
5199;SDS011;2619;47.868;11.892;2023-07-20T11:13:57;4.50;;;3.30;;
5199;SDS011;2619;47.868;11.892;2023-07-20T11:16:45;3.87;;;2.60;;
5199;SDS011;2619;47.868;11.892;2023-07-20T11:21:45;7.50;;;3.40;;
5199;SDS011;2619;47.868;11.892;2023-07-20T11:24:14;5.63;;;3.50;;
5199;SDS011;2619;47.868;11.892;2023-07-20T11:26:40;4.07;;;2.87;;
5199;SDS011;2619;47.868;11.892;2023-07-20T11:29:09;4.17;;;3.00;;
5199;SDS011;2619;47.868;11.892;2023-07-20T11:31:36;5.70;;;2.80;;
5199;SDS011;2619;47.868;11.892;2023-07-20T11:34:07;9.00;;;3.13;;
5199;SDS011;2619;47.868;11.892;2023-07-20T11:36:36;5.27;;;2.97;;
5199;SDS011;2619;47.868;11.892;2023-07-20T11:39:01;9.93;;;3.10;;
5199;SDS011;2619;47.868;11.892;2023-07-20T11:41:29;7.50;;;3.03;;
5199;SDS011;2619;47.868;11.892;2023-07-20T11:43:56;4.30;;;3.33;;
5199;SDS011;2619;47.868;11.892;2023-07-20T11:46:22;4.20;;;2.50;;
5199;SDS011;2619;47.868;11.892;2023-07-20T11:48:48;4.70;;;3.20;;
5199;SDS011;2619;47.868;11.892;2023-07-20T11:51:16;5.17;;;2.90;;
5199;SDS011;2619;47.868;11.892;2023-07-20T11:53:43;5.33;;;2.97;;
5199;SDS011;2619;47.868;11.892;2023-07-20T11:56:11;5.03;;;3.10;;
5199;SDS011;2619;47.868;11.892;2023-07-20T11:58:41;4.60;;;2.40;;
5199;SDS011;2619;47.868;11.892;2023-07-20T12:01:08;8.77;;;3.00;;
5199;SDS011;2619;47.868;11.892;2023-07-20T12:03:34;4.93;;;2.70;;
5199;SDS011;2619;47.868;11.892;2023-07-20T12:06:09;4.60;;;2.90;;
5199;SDS011;2619;47.868;11.892;2023-07-20T12:08:37;5.50;;;2.70;;
5199;SDS011;2619;47.868;11.892;2023-07-20T12:11:04;5.60;;;2.50;;
5199;SDS011;2619;47.868;11.892;2023-07-20T12:13:51;6.17;;;2.90;;
5199;SDS011;2619;47.868;11.892;2023-07-20T12:16:16;6.13;;;2.77;;
5199;SDS011;2619;47.868;11.892;2023-07-20T12:18:44;5.03;;;3.07;;
5199;SDS011;2619;47.868;11.892;2023-07-20T12:21:10;7.30;;;2.97;;
5199;SDS011;2619;47.868;11.892;2023-07-20T12:23:39;5.60;;;2.70;;
5199;SDS011;2619;47.868;11.892;2023-07-20T12:26:09;4.93;;;2.93;;
5199;SDS011;2619;47.868;11.892;2023-07-20T12:28:38;6.77;;;2.90;;
5199;SDS011;2619;47.868;11.892;2023-07-20T12:31:06;4.93;;;3.00;;
5199;SDS011;2619;47.868;11.892;2023-07-20T12:33:32;4.93;;;3.10;;
5199;SDS011;2619;47.868;11.892;2023-07-20T12:35:58;4.53;;;3.10;;
5199;SDS011;2619;47.868;11.892;2023-07-20T12:38:25;3.80;;;2.60;;
5199;SDS011;2619;47.868;11.892;2023-07-20T12:40:52;4.77;;;3.07;;
5199;SDS011;2619;47.868;11.892;2023-07-20T12:43:20;4.73;;;2.90;;
5199;SDS011;2619;47.868;11.892;2023-07-20T12:45:45;3.77;;;2.90;;
5199;SDS011;2619;47.868;11.892;2023-07-20T12:48:11;6.70;;;3.07;;
5199;SDS011;2619;47.868;11.892;2023-07-20T12:50:37;4.07;;;2.83;;
5199;SDS011;2619;47.868;11.892;2023-07-20T12:53:02;6.67;;;3.10;;
5199;SDS011;2619;47.868;11.892;2023-07-20T12:55:28;6.40;;;2.80;;
5199;SDS011;2619;47.868;11.892;2023-07-20T12:57:54;3.60;;;2.57;;
5199;SDS011;2619;47.868;11.892;2023-07-20T13:00:20;5.53;;;2.87;;
5199;SDS011;2619;47.868;11.892;2023-07-20T13:02:49;4.80;;;2.80;;
5199;SDS011;2619;47.868;11.892;2023-07-20T13:05:15;3.87;;;2.87;;
5199;SDS011;2619;47.868;11.892;2023-07-20T13:07:41;4.60;;;2.83;;
5199;SDS011;2619;47.868;11.892;2023-07-20T13:10:07;4.13;;;2.80;;
5199;SDS011;2619;47.868;11.892;2023-07-20T13:12:34;5.97;;;2.40;;
5199;SDS011;2619;47.868;11.892;2023-07-20T13:15:07;9.10;;;3.20;;
5199;SDS011;2619;47.868;11.892;2023-07-20T13:17:34;3.97;;;2.27;;
5199;SDS011;2619;47.868;11.892;2023-07-20T13:20:00;4.10;;;2.47;;
5199;SDS011;2619;47.868;11.892;2023-07-20T13:22:29;5.43;;;2.83;;
5199;SDS011;2619;47.868;11.892;2023-07-20T13:24:55;4.97;;;2.90;;
5199;SDS011;2619;47.868;11.892;2023-07-20T13:27:20;6.10;;;3.00;;
5199;SDS011;2619;47.868;11.892;2023-07-20T13:29:46;5.80;;;3.30;;
5199;SDS011;2619;47.868;11.892;2023-07-20T13:32:15;5.17;;;2.70;;
5199;SDS011;2619;47.868;11.892;2023-07-20T13:34:43;13.13;;;3.60;;
5199;SDS011;2619;47.868;11.892;2023-07-20T13:37:09;3.67;;;2.40;;
5199;SDS011;2619;47.868;11.892;2023-07-20T13:39:35;4.50;;;2.60;;
5199;SDS011;2619;47.868;11.892;2023-07-20T13:42:01;5.20;;;2.50;;
5199;SDS011;2619;47.868;11.892;2023-07-20T13:44:29;4.20;;;2.97;;
5199;SDS011;2619;47.868;11.892;2023-07-20T13:46:57;6.37;;;3.10;;
5199;SDS011;2619;47.868;11.892;2023-07-20T13:49:23;5.20;;;2.93;;
5199;SDS011;2619;47.868;11.892;2023-07-20T13:51:49;4.40;;;2.80;;
5199;SDS011;2619;47.868;11.892;2023-07-20T13:54:15;4.70;;;2.17;;
5199;SDS011;2619;47.868;11.892;2023-07-20T13:56:40;4.30;;;2.93;;
5199;SDS011;2619;47.868;11.892;2023-07-20T13:59:06;4.67;;;2.90;;
5199;SDS011;2619;47.868;11.892;2023-07-20T14:01:32;3.70;;;2.87;;
5199;SDS011;2619;47.868;11.892;2023-07-20T14:04:01;4.20;;;2.87;;
5199;SDS011;2619;47.868;11.892;2023-07-20T14:06:29;4.47;;;2.40;;
5199;SDS011;2619;47.868;11.892;2023-07-20T14:08:55;6.23;;;2.33;;
5199;SDS011;2619;47.868;11.892;2023-07-20T14:11:20;4.70;;;2.70;;
5199;SDS011;2619;47.868;11.892;2023-07-20T14:13:46;5.70;;;2.53;;
5199;SDS011;2619;47.868;11.892;2023-07-20T14:16:11;5.80;;;3.20;;
5199;SDS011;2619;47.868;11.892;2023-07-20T14:18:37;4.70;;;2.53;;
5199;SDS011;2619;47.868;11.892;2023-07-20T14:21:03;5.00;;;3.00;;
5199;SDS011;2619;47.868;11.892;2023-07-20T14:23:30;4.33;;;2.43;;
5199;SDS011;2619;47.868;11.892;2023-07-20T14:25:55;4.20;;;2.40;;
5199;SDS011;2619;47.868;11.892;2023-07-20T14:28:21;4.90;;;2.33;;
5199;SDS011;2619;47.868;11.892;2023-07-20T14:30:46;5.13;;;2.90;;
5199;SDS011;2619;47.868;11.892;2023-07-20T14:33:12;3.70;;;2.60;;
5199;SDS011;2619;47.868;11.892;2023-07-20T14:35:38;5.23;;;2.93;;
5199;SDS011;2619;47.868;11.892;2023-07-20T14:38:03;5.30;;;3.13;;
5199;SDS011;2619;47.868;11.892;2023-07-20T14:40:29;6.63;;;2.90;;
5199;SDS011;2619;47.868;11.892;2023-07-20T14:42:55;4.53;;;2.53;;
5199;SDS011;2619;47.868;11.892;2023-07-20T14:45:21;6.30;;;2.73;;
5199;SDS011;2619;47.868;11.892;2023-07-20T14:47:46;4.70;;;2.70;;
5199;SDS011;2619;47.868;11.892;2023-07-20T14:50:18;3.80;;;2.60;;
5199;SDS011;2619;47.868;11.892;2023-07-20T14:52:44;4.40;;;2.50;;
5199;SDS011;2619;47.868;11.892;2023-07-20T14:55:10;5.10;;;2.67;;
5199;SDS011;2619;47.868;11.892;2023-07-20T14:57:35;4.83;;;2.70;;
5199;SDS011;2619;47.868;11.892;2023-07-20T15:00:01;4.77;;;2.57;;
5199;SDS011;2619;47.868;11.892;2023-07-20T15:02:28;4.80;;;2.23;;
5199;SDS011;2619;47.868;11.892;2023-07-20T15:04:54;3.97;;;2.67;;
5199;SDS011;2619;47.868;11.892;2023-07-20T15:07:20;4.47;;;3.03;;
5199;SDS011;2619;47.868;11.892;2023-07-20T15:09:47;6.43;;;3.00;;
5199;SDS011;2619;47.868;11.892;2023-07-20T15:12:12;4.70;;;2.87;;
5199;SDS011;2619;47.868;11.892;2023-07-20T15:14:39;4.43;;;2.93;;
5199;SDS011;2619;47.868;11.892;2023-07-20T15:17:06;4.40;;;2.50;;
5199;SDS011;2619;47.868;11.892;2023-07-20T15:19:32;5.77;;;2.77;;
5199;SDS011;2619;47.868;11.892;2023-07-20T15:21:59;3.50;;;2.43;;
5199;SDS011;2619;47.868;11.892;2023-07-20T15:24:25;7.97;;;3.20;;
5199;SDS011;2619;47.868;11.892;2023-07-20T15:26:50;5.60;;;3.10;;